createdAt,value
2023-04-04T00:00:01.564Z,4.0
2023-04-04T00:05:01.132Z,3.6
2023-04-04T00:15:02.928Z,3.0
2023-04-04T00:20:01.104Z,3.0
2023-04-04T00:25:01.094Z,3.0
2023-04-04T00:30:01.578Z,3.2
2023-04-04T00:40:01.272Z,3.6
2023-04-04T00:45:01.864Z,3.6
2023-04-04T00:50:01.115Z,3.8
2023-04-04T00:55:01.293Z,3.8
2023-04-04T01:00:03.377Z,3.8
2023-04-04T01:05:01.152Z,3.7
2023-04-04T01:10:01.755Z,3.8
2023-04-04T01:15:01.759Z,3.6
2023-04-04T01:20:01.822Z,3.4
2023-04-04T01:25:01.278Z,3.1
2023-04-04T01:30:01.990Z,3.0
2023-04-04T01:35:01.132Z,3.0
2023-04-04T01:40:01.265Z,3.0
2023-04-04T01:45:01.900Z,3.0
2023-04-04T01:50:01.132Z,2.8
2023-04-04T01:55:01.175Z,2.8
2023-04-04T02:00:01.925Z,3.0
2023-04-04T02:05:01.159Z,3.1
2023-04-04T02:10:01.138Z,2.8
2023-04-04T02:15:01.788Z,2.8
2023-04-04T02:20:01.284Z,2.8
2023-04-04T02:25:01.657Z,2.4
2023-04-04T02:30:01.617Z,2.1
2023-04-04T02:35:01.153Z,2.4
2023-04-04T02:40:01.279Z,2.8
2023-04-04T02:45:01.781Z,3.0
2023-04-04T02:50:01.215Z,3.2
2023-04-04T02:55:01.391Z,3.2
2023-04-04T03:00:01.740Z,3.3
2023-04-04T03:05:01.184Z,3.5
2023-04-04T03:15:02.093Z,3.5
2023-04-04T03:20:01.296Z,3.3
2023-04-04T03:25:01.217Z,3.4
2023-04-04T03:30:01.809Z,2.8
2023-04-04T03:35:01.149Z,3.2
2023-04-04T03:40:01.365Z,3.3
2023-04-04T03:45:01.720Z,3.7
2023-04-04T03:50:01.153Z,3.4
2023-04-04T03:55:01.226Z,3.6
2023-04-04T04:00:03.186Z,3.0
2023-04-04T04:05:01.177Z,3.0
2023-04-04T04:10:01.163Z,2.6
2023-04-04T04:15:01.638Z,2.8
2023-04-04T04:25:01.531Z,3.0
2023-04-04T04:30:03.776Z,3.6
2023-04-04T04:35:01.180Z,4.2
2023-04-04T04:40:01.197Z,4.2
2023-04-04T04:45:02.261Z,4.1
2023-04-04T04:55:02.608Z,3.1
2023-04-04T05:00:02.413Z,2.5
2023-04-04T05:05:01.352Z,2.7
2023-04-04T05:10:01.194Z,2.9
2023-04-04T05:15:01.658Z,3.4
2023-04-04T05:20:01.408Z,3.8
2023-04-04T05:25:01.408Z,4.4
2023-04-04T05:30:01.878Z,4.7
2023-04-04T05:35:01.990Z,4.8
2023-04-04T05:40:01.382Z,4.8
2023-04-04T05:45:02.144Z,5.2
2023-04-04T05:50:01.253Z,5.2
2023-04-04T06:00:01.906Z,5.4
2023-04-04T06:05:01.371Z,5.4
2023-04-04T06:10:02.422Z,4.5
2023-04-04T06:15:01.855Z,4.0
2023-04-04T06:20:01.268Z,3.2
2023-04-04T06:25:01.379Z,3.0
2023-04-04T06:30:02.643Z,2.8
2023-04-04T06:40:01.763Z,3.2
2023-04-04T06:45:01.995Z,3.2
2023-04-04T06:50:01.301Z,3.0
2023-04-04T06:55:01.992Z,2.8
2023-04-04T07:00:01.894Z,2.9
2023-04-04T07:05:02.527Z,2.9
2023-04-04T07:10:01.329Z,3.0
2023-04-04T07:15:01.657Z,3.2
2023-04-04T07:20:06.728Z,3.7
2023-04-04T07:25:01.657Z,4.0
2023-04-04T07:30:02.379Z,4.2
2023-04-04T07:35:01.233Z,4.4
2023-04-04T07:45:02.705Z,4.9
2023-04-04T07:50:01.680Z,4.8
2023-04-04T07:55:01.229Z,4.4
2023-04-04T08:00:02.270Z,4.6
2023-04-04T08:05:01.311Z,4.4
2023-04-04T08:10:01.848Z,3.8
2023-04-04T08:15:01.806Z,3.1
2023-04-04T08:20:01.836Z,3.1
2023-04-04T08:25:01.933Z,2.9
2023-04-04T08:30:01.846Z,2.7
2023-04-04T08:35:02.302Z,2.4
2023-04-04T08:40:03.002Z,2.3
2023-04-04T08:45:03.845Z,2.1
2023-04-04T08:50:01.222Z,1.6
2023-04-04T08:55:03.505Z,1.4
2023-04-04T09:00:02.658Z,1.4
2023-04-04T09:10:01.237Z,1.6
2023-04-04T09:15:01.868Z,1.7
2023-04-04T09:25:01.395Z,2.2
2023-04-04T09:30:07.006Z,2.2
2023-04-04T09:35:02.030Z,2.2
2023-04-04T09:40:01.715Z,2.2
2023-04-04T09:45:02.180Z,2.2
2023-04-04T09:55:01.251Z,1.8
2023-04-04T10:00:03.671Z,1.8
2023-04-04T10:10:01.481Z,1.9
2023-04-04T10:15:02.188Z,2.1
2023-04-04T10:25:02.162Z,2.4
2023-04-04T10:30:02.284Z,2.6
2023-04-04T10:35:01.372Z,2.6
2023-04-04T10:40:01.369Z,2.2
2023-04-04T10:45:22.792Z,2.4
2023-04-04T10:50:01.358Z,2.2
2023-04-04T10:55:01.568Z,2.2
2023-04-04T11:00:04.745Z,2.2
2023-04-04T11:05:01.565Z,1.9
2023-04-04T11:10:01.374Z,1.7
2023-04-04T11:15:07.172Z,1.7
2023-04-04T11:20:01.334Z,1.8
2023-04-04T11:25:17.125Z,1.8
2023-04-04T11:30:01.320Z,2.4
2023-04-04T11:35:01.254Z,2.4
2023-04-04T11:40:01.265Z,2.4
2023-04-04T11:45:03.371Z,2.2
2023-04-04T11:50:01.259Z,2.2
2023-04-04T11:55:01.297Z,2.2
2023-04-04T12:00:02.108Z,2.4
2023-04-04T12:05:01.783Z,3.0
2023-04-04T12:10:01.277Z,3.4
2023-04-04T12:15:18.577Z,3.6
2023-04-04T12:20:01.417Z,3.6
2023-04-04T12:25:01.447Z,3.3
2023-04-04T12:30:03.449Z,2.7
2023-04-04T12:40:02.387Z,1.9
2023-04-04T12:45:01.940Z,1.6
2023-04-04T12:50:01.288Z,1.6
2023-04-04T12:55:09.173Z,1.8
2023-04-04T13:00:03.272Z,1.8
2023-04-04T13:05:01.536Z,2.0
2023-04-04T13:10:01.380Z,2.1
2023-04-04T13:15:03.238Z,1.9
2023-04-04T13:20:01.396Z,1.6
2023-04-04T13:25:01.486Z,1.4
2023-04-04T13:30:02.220Z,1.2
2023-04-04T13:35:01.366Z,1.0
2023-04-04T13:45:02.312Z,0.8
2023-04-04T13:50:01.929Z,0.8
2023-04-04T13:55:02.860Z,0.8
2023-04-04T14:00:02.921Z,0.8
2023-04-04T14:06:11.452Z,1.0
2023-04-04T14:11:01.719Z,1.0
2023-04-04T14:16:01.472Z,0.8
2023-04-04T14:31:01.424Z,0.6
2023-04-04T14:36:01.269Z,0.6
2023-04-04T14:41:01.504Z,0.8
2023-04-04T14:46:01.416Z,0.6
2023-04-04T14:51:01.640Z,0.8
2023-04-04T14:57:01.661Z,0.6
2023-04-04T15:02:01.777Z,0.6
2023-04-04T15:07:01.529Z,0.7
2023-04-04T15:12:01.342Z,0.7
2023-04-04T15:17:01.698Z,0.7
2023-04-04T15:22:01.285Z,0.9
2023-04-04T15:27:02.634Z,0.9
2023-04-04T15:32:02.280Z,0.9
2023-04-04T15:37:01.486Z,1.0
2023-04-04T15:42:02.726Z,0.8
2023-04-04T15:47:01.410Z,0.7
2023-04-04T15:52:01.351Z,0.7
2023-04-04T15:57:01.276Z,0.7
2023-04-04T16:02:04.158Z,3.3
2023-04-04T16:07:01.469Z,5.6
2023-04-04T16:12:01.261Z,5.6
2023-04-04T16:17:01.268Z,6.0
2023-04-04T16:22:02.288Z,5.8
2023-04-04T16:27:01.433Z,3.2
2023-04-04T16:32:01.268Z,1.1
2023-04-04T16:37:01.798Z,1.5
2023-04-04T16:42:01.345Z,1.1
2023-04-04T16:47:01.496Z,1.5
2023-04-04T16:57:01.986Z,1.7
2023-04-04T17:02:01.410Z,1.5
2023-04-04T17:07:01.348Z,1.4
2023-04-04T17:12:01.266Z,1.2
2023-04-04T17:17:01.339Z,1.0
2023-04-04T17:32:01.517Z,1.0
2023-04-04T17:42:01.267Z,0.8
2023-04-04T17:47:01.412Z,0.8
2023-04-04T17:57:01.434Z,0.7
2023-04-04T18:02:01.564Z,1.0
2023-04-04T18:07:01.266Z,0.8
2023-04-04T18:12:01.526Z,0.6
2023-04-04T18:17:02.128Z,0.6
2023-04-04T18:27:02.012Z,0.8
2023-04-04T18:32:02.476Z,0.9
2023-04-04T18:37:01.876Z,1.3
2023-04-04T18:52:01.363Z,1.7
2023-04-04T18:57:01.417Z,2.5
2023-04-04T19:02:01.336Z,3.1
2023-04-04T19:07:01.289Z,3.3
2023-04-04T19:13:01.488Z,4.0
2023-04-04T19:18:01.416Z,4.6
2023-04-04T19:23:01.275Z,4.5
2023-04-04T19:28:01.268Z,4.7
2023-04-04T19:33:01.442Z,4.7
2023-04-04T19:38:01.292Z,5.1
2023-04-04T19:43:01.279Z,5.2
2023-04-04T19:48:01.445Z,4.9
2023-04-04T19:58:01.463Z,4.9
2023-04-04T20:03:01.654Z,4.7
2023-04-04T20:08:01.279Z,4.6
2023-04-04T20:13:01.261Z,4.6
2023-04-04T20:18:01.622Z,4.4
2023-04-04T20:23:01.604Z,4.2
2023-04-04T20:28:01.333Z,3.9
2023-04-04T20:33:02.177Z,3.9
2023-04-04T20:39:01.434Z,4.3
2023-04-04T20:44:01.275Z,4.7
2023-04-04T20:49:01.269Z,4.6
2023-04-04T20:54:01.264Z,4.5
2023-04-04T20:59:01.506Z,4.5
2023-04-04T21:04:01.438Z,4.3
2023-04-04T21:09:01.333Z,4.3
2023-04-04T21:14:01.295Z,4.6
2023-04-04T21:19:01.449Z,5.4
2023-04-04T21:24:01.363Z,5.2
2023-04-04T21:29:01.277Z,5.8
2023-04-04T21:34:01.520Z,5.4
2023-04-04T21:39:09.441Z,5.4
2023-04-04T21:44:01.259Z,5.2
2023-04-04T21:49:01.339Z,5.2
2023-04-04T21:54:01.377Z,4.6
2023-04-04T21:59:03.508Z,5.0
2023-04-04T22:04:01.878Z,5.2
2023-04-04T22:09:01.262Z,6.2
2023-04-04T22:14:01.278Z,6.5
2023-04-04T22:19:01.869Z,7.5
2023-04-04T22:24:01.449Z,8.2
2023-04-04T22:29:01.259Z,8.3
2023-04-04T22:34:01.272Z,7.6
2023-04-04T22:39:01.944Z,8.0
2023-04-04T22:44:01.268Z,7.4
2023-04-04T22:54:01.379Z,7.0
2023-04-04T22:59:01.521Z,7.0
2023-04-04T23:04:02.191Z,7.0
2023-04-04T23:09:03.969Z,7.3
2023-04-04T23:14:01.254Z,7.0
2023-04-04T23:19:01.431Z,7.2
2023-04-04T23:24:01.291Z,7.2
2023-04-04T23:29:01.284Z,7.6
2023-04-04T23:34:01.306Z,7.7
2023-04-04T23:39:01.875Z,8.3
2023-04-04T23:44:01.402Z,8.4
2023-04-04T23:49:01.339Z,8.3
2023-04-04T23:54:01.363Z,7.8
2023-04-04T23:59:01.430Z,7.5
